Aeroporto :
LOGIN :

Iscrizione | Disclaimer

   EN    FR    IT 

 










Sommario :    VFR   VFR Marginale   IFR   IFR Intensivo   IFR Molto Intensivo
Visibilità : 
Base nubi : 
>= 8 km
>= 3000ft
5 / 8 km
1000 / 3000 ft
1500m / 5 km
500 / 1000 ft
800 / 1500m
200 / 500 ft
< 800m
< 200 ft
Simboli :   Temporali  Nebbia  Neve Forte  Precipitazioni Forti  Vento > 20 kt
SIGMETs :   Varie  Temporali  Ghiacco  Turbolenza  Onda orograficha  Ceneri Vulcaniche






- Altitudine del aeroporto : 659 ft
- Codice IATA : LYN


LFLY - Lyon Bron

ULTIMO METAR :
  • 151430Z AUTO 19020KT CAVOK 28/18 Q1010 TEMPO VRB20G45KT 1200 TSGR BKN012 BKN040CB

METARs OBSOLETI :
  • 151400Z AUTO 18020KT CAVOK 29/19 Q1009 TEMPO VRB20G45KT 1200 TSGR BKN012 BKN040CB
  • 151330Z AUTO 19019G31KT CAVOK 31/19 Q1009 TEMPO VRB20G45KT 1200 TSGR BKN012 BKN040CB
  • 151300Z AUTO 18026KT CAVOK 30/19 Q1009 TEMPO 18025G35KT
  • 151230Z AUTO 19023G34KT CAVOK 31/19 Q1010 NOSIG
  • 151200Z AUTO 17016KT 130V210 9999 3700 NSC 31/18 Q1010 TEMPO 18015G25KT
  • 151130Z AUTO 16013KT 120V200 9000 2400 NSC 31/18 Q1010 TEMPO 18015G25KT
  • 151100Z AUTO 17016KT 130V200 CAVOK 28/18 Q1011 TEMPO 18015G25KT
  • 151030Z AUTO 17015KT 140V200 CAVOK 28/18 Q1011 TEMPO 18015G25KT
  • 151000Z AUTO 17014KT 140V200 9999 1200 R34/P2400 NSC 28/18 Q1011 TEMPO 18015G25KT
  • 150930Z AUTO 17012KT 140V200 CAVOK 28/19 Q1011 TEMPO 18015G25KT

TAF AMD TAF LFLY
Valido dal 15 a 13 ore il 16 a 12 ore UTC


151309Z 1513/1612 18005KT CAVOK
TEMPO 1513/1516 18025G35KT
TEMPO 1515/1520 34015G35KT 2000 TSRA BKN050CB
PROB40
TEMPO 1515/1518 VRB20G45KT 1200 TSGR BKN012 BKN040CB
PROB40
TEMPO 1520/1602 VRB10KT 4000 SHRA FEW035CB BKN040TCU
PROB30
TEMPO 1520/1522 VRB15G30KT 2000 TSRA BKN035CB
PROB30
TEMPO 1602/1606 3000 BR BKN004
BECMG 1606/1608 36010KT BKN030
BECMG 1610/1612 SCT050
ATIS : +33 4 72 15 87 96



MetMap, La meteo Aeronautica in un colpo d'occhio ! - Copyright ORBIFLY Dicembre 2007 - Disclaimer

ORBIFLY MET'MAP TEAM :

Programmazione e sviluppo : Alexandra Zaïnal
Concezione : Baudouin d'Aumeries
Supporto tecnico e logistico : Manuel Goepfert
Aiuto : Marc-Olivier Méhu
Aiuto per la traduzione : Arnaldo La Scala




FONTI E CREDITI :

   NOAA